カーナーク/チューレ空軍基地 の空港の天気 - METARとTAF

チューレ空軍基地 ( BGTL / THU ) - グリーンランド カーナーク
飛行場実況気象(Metar)
観測時間02/17 18:56 AST (02/17 22:56 UTC)
風向・風速東南東 5m/s
視程10km以上
天気現象
なし
気温-27℃
湿度74%
気圧1010.9hPa
METARBGTL 172256Z AUTO 11010KT 9999 CLR M27/M30 A2987 RMK AO2 SLP109 T12701302 TSNO CHINO RWY26 $
過去の天気等 Google飛行場航空写真 Wunderground天気予報

過去48時間のMETAR

飛行場予報(TAF)
データがありません